createdAt,value
2022-12-23T00:01:34.691Z,9.93
2022-12-23T00:04:05.454Z,9.90
2022-12-23T00:06:34.139Z,9.85
2022-12-23T00:09:04.800Z,9.82
2022-12-23T00:11:34.255Z,9.78
2022-12-23T00:14:22.191Z,9.70
2022-12-23T00:16:52.693Z,9.66
2022-12-23T00:19:22.875Z,9.62
2022-12-23T00:21:53.530Z,9.58
2022-12-23T00:24:25.240Z,9.59
2022-12-23T00:26:54.551Z,9.60
2022-12-23T00:29:23.054Z,9.59
2022-12-23T00:31:55.353Z,9.58
2022-12-23T00:34:25.030Z,9.58
2022-12-23T00:36:54.048Z,9.58
2022-12-23T00:39:43.205Z,9.59
2022-12-23T00:42:31.862Z,9.59
2022-12-23T00:45:16.282Z,9.58
2022-12-23T00:48:06.974Z,9.55
2022-12-23T00:50:39.823Z,9.58
2022-12-23T00:53:08.268Z,9.58
2022-12-23T00:55:36.670Z,9.56
2022-12-23T00:58:05.273Z,9.56
2022-12-23T01:00:53.390Z,9.54
2022-12-23T01:03:42.105Z,9.52
2022-12-23T01:06:11.909Z,9.53
2022-12-23T01:08:40.788Z,9.48
2022-12-23T01:11:12.556Z,9.50
2022-12-23T01:13:41.880Z,9.51
2022-12-23T01:16:17.244Z,9.52
2022-12-23T01:18:46.606Z,9.54
2022-12-23T01:21:17.745Z,9.58
2022-12-23T01:23:50.031Z,9.61
2022-12-23T01:26:19.878Z,9.67
2022-12-23T01:28:49.115Z,9.66
2022-12-23T01:31:17.971Z,9.70
2022-12-23T01:33:46.898Z,9.71
2022-12-23T01:36:17.578Z,9.72
2022-12-23T01:38:50.770Z,9.73
2022-12-23T01:41:38.635Z,9.76
2022-12-23T01:44:39.191Z,9.80
2022-12-23T01:47:13.763Z,9.76
2022-12-23T01:49:44.471Z,9.75
2022-12-23T01:52:14.096Z,9.72
2022-12-23T01:54:44.937Z,9.76
2022-12-23T01:57:13.927Z,9.67
2022-12-23T02:00:02.710Z,9.63
2022-12-23T02:02:51.912Z,9.55
2022-12-23T02:05:23.100Z,9.41
2022-12-23T02:08:12.020Z,9.40
2022-12-23T02:10:51.026Z,9.32
2022-12-23T02:13:26.782Z,9.29
2022-12-23T02:16:18.979Z,9.27
2022-12-23T02:19:00.982Z,9.21
2022-12-23T02:21:54.917Z,9.19
2022-12-23T02:24:50.724Z,9.20
2022-12-23T02:27:29.525Z,9.18
2022-12-23T02:30:29.560Z,9.16
2022-12-23T02:33:20.434Z,9.17
2022-12-23T02:35:57.716Z,9.20
2022-12-23T02:38:30.981Z,9.23
2022-12-23T02:41:06.836Z,9.24
2022-12-23T02:43:42.415Z,9.28
2022-12-23T02:46:16.913Z,9.28
2022-12-23T02:48:49.081Z,9.26
2022-12-23T02:51:20.298Z,9.28
2022-12-23T02:53:51.462Z,9.29
2022-12-23T02:56:22.478Z,9.31
2022-12-23T02:58:55.859Z,9.29
2022-12-23T03:01:27.328Z,9.32
2022-12-23T03:03:59.020Z,9.34
2022-12-23T03:06:29.781Z,9.39
2022-12-23T03:09:00.168Z,9.35
2022-12-23T03:11:40.575Z,9.36
2022-12-23T03:14:25.739Z,9.38
2022-12-23T03:17:00.797Z,9.38
2022-12-23T03:19:33.688Z,9.36
2022-12-23T03:22:08.408Z,9.36
2022-12-23T03:24:46.286Z,9.42
2022-12-23T03:27:18.098Z,9.43
2022-12-23T03:29:51.992Z,9.46
2022-12-23T03:32:23.486Z,9.46
2022-12-23T03:34:54.485Z,9.46
2022-12-23T03:37:25.964Z,9.49
2022-12-23T03:39:58.845Z,9.47
2022-12-23T03:42:31.794Z,9.44
2022-12-23T03:45:37.475Z,9.37
2022-12-23T03:48:02.368Z,9.32
2022-12-23T03:50:33.667Z,9.32
2022-12-23T03:53:06.410Z,9.27
2022-12-23T03:55:38.126Z,9.27
2022-12-23T03:58:12.253Z,9.22
2022-12-23T04:00:47.095Z,9.22
2022-12-23T04:03:21.729Z,9.19
2022-12-23T04:05:54.172Z,9.21
2022-12-23T04:08:28.355Z,9.20
2022-12-23T04:10:58.166Z,9.20
2022-12-23T04:13:28.174Z,9.24
2022-12-23T04:15:58.979Z,9.25
2022-12-23T04:18:28.134Z,9.27
2022-12-23T04:20:56.707Z,9.30
2022-12-23T04:23:26.375Z,9.31
2022-12-23T04:25:57.263Z,9.34
2022-12-23T04:28:26.609Z,9.33
2022-12-23T04:30:57.430Z,9.32
2022-12-23T04:33:29.644Z,9.27
2022-12-23T04:36:02.369Z,9.27
2022-12-23T04:38:33.377Z,9.22
2022-12-23T04:41:02.413Z,9.20
2022-12-23T04:43:32.616Z,9.16
2022-12-23T04:46:04.300Z,9.12
2022-12-23T04:48:32.924Z,9.09
2022-12-23T04:51:03.781Z,9.02
2022-12-23T04:53:32.589Z,9.03
2022-12-23T04:56:02.716Z,8.98
2022-12-23T04:58:31.181Z,8.97
2022-12-23T05:01:07.338Z,8.95
2022-12-23T05:03:38.336Z,8.94
2022-12-23T05:06:08.974Z,8.90
2022-12-23T05:08:39.681Z,8.91
2022-12-23T05:11:10.991Z,8.94
2022-12-23T05:13:40.830Z,8.91
2022-12-23T05:16:10.903Z,8.92
2022-12-23T05:18:39.794Z,8.92
2022-12-23T05:21:09.447Z,8.92
2022-12-23T05:23:39.058Z,8.93
2022-12-23T05:26:10.900Z,8.95
2022-12-23T05:28:39.696Z,8.99
2022-12-23T05:31:11.296Z,9.01
2022-12-23T05:33:41.713Z,9.02
2022-12-23T05:36:12.319Z,9.03
2022-12-23T05:38:41.900Z,9.04
2022-12-23T05:41:11.020Z,9.07
2022-12-23T05:43:39.673Z,9.09
2022-12-23T05:46:08.563Z,9.14
2022-12-23T05:48:38.441Z,9.17
2022-12-23T05:51:08.044Z,9.23
2022-12-23T05:53:36.576Z,9.24
2022-12-23T05:56:08.286Z,9.25
2022-12-23T05:58:37.037Z,9.24
2022-12-23T06:01:08.914Z,9.23
2022-12-23T06:03:38.520Z,9.26
2022-12-23T06:06:08.371Z,9.27
2022-12-23T06:08:37.367Z,9.28
2022-12-23T06:11:06.993Z,9.21
2022-12-23T06:13:36.007Z,9.23
2022-12-23T06:16:07.383Z,9.20
2022-12-23T06:18:36.398Z,9.18
2022-12-23T06:21:06.386Z,9.15
2022-12-23T06:23:35.357Z,9.13
2022-12-23T06:26:06.173Z,9.14
2022-12-23T06:28:34.878Z,9.11
2022-12-23T06:31:04.968Z,9.14
2022-12-23T06:33:33.409Z,9.16
2022-12-23T06:36:02.671Z,9.18
2022-12-23T06:38:32.073Z,9.23
2022-12-23T06:41:00.765Z,9.22
2022-12-23T06:43:31.947Z,9.20
2022-12-23T06:46:02.033Z,9.25
2022-12-23T06:48:31.463Z,9.27
2022-12-23T06:51:01.392Z,9.31
2022-12-23T06:53:32.036Z,9.38
2022-12-23T06:56:03.699Z,9.43
2022-12-23T06:58:34.714Z,9.45
2022-12-23T07:01:06.392Z,9.49
2022-12-23T07:03:35.593Z,9.54
2022-12-23T07:06:06.392Z,9.58
2022-12-23T07:08:35.088Z,9.61
2022-12-23T07:11:05.412Z,9.63
2022-12-23T07:13:34.057Z,9.69
2022-12-23T07:16:08.094Z,9.72
2022-12-23T07:18:39.626Z,9.71
2022-12-23T07:21:17.750Z,9.68
2022-12-23T07:23:52.293Z,9.64
2022-12-23T07:26:21.977Z,9.65
2022-12-23T07:28:51.706Z,9.62
2022-12-23T07:31:20.104Z,9.67
2022-12-23T07:33:50.152Z,9.71
2022-12-23T07:36:21.549Z,9.78
2022-12-23T07:38:52.055Z,9.83
2022-12-23T07:41:22.076Z,9.88
2022-12-23T07:43:51.404Z,9.93
2022-12-23T07:46:20.238Z,9.97
2022-12-23T07:48:50.314Z,9.98
2022-12-23T07:51:21.414Z,9.98
2022-12-23T07:53:51.501Z,9.98
2022-12-23T07:56:22.383Z,9.97
2022-12-23T07:58:53.846Z,9.95
2022-12-23T08:01:23.541Z,9.95
2022-12-23T08:03:52.380Z,9.97
2022-12-23T08:06:21.165Z,10.01
2022-12-23T08:08:49.768Z,10.03
2022-12-23T08:11:18.239Z,10.08
2022-12-23T08:13:48.629Z,10.09
2022-12-23T08:16:17.198Z,10.11
2022-12-23T08:18:47.237Z,10.19
2022-12-23T08:21:19.512Z,10.23
2022-12-23T08:23:49.354Z,10.26
2022-12-23T08:26:20.312Z,10.30
2022-12-23T08:28:52.672Z,10.38
2022-12-23T08:31:23.945Z,10.41
2022-12-23T08:33:57.042Z,10.46
2022-12-23T08:36:28.031Z,10.53
2022-12-23T08:38:58.709Z,10.55
2022-12-23T08:41:29.774Z,10.62
2022-12-23T08:44:00.117Z,10.69
2022-12-23T08:46:31.527Z,10.78
2022-12-23T08:49:02.057Z,10.86
2022-12-23T08:51:32.341Z,10.99
2022-12-23T08:54:02.294Z,11.04
2022-12-23T08:56:33.983Z,11.08
2022-12-23T08:59:03.942Z,11.09
2022-12-23T09:01:34.608Z,11.06
2022-12-23T09:04:04.920Z,11.06
2022-12-23T09:06:37.423Z,11.08
2022-12-23T09:09:10.858Z,11.11
2022-12-23T09:11:42.255Z,11.15
2022-12-23T09:14:12.639Z,11.19
2022-12-23T09:16:41.155Z,11.25
2022-12-23T09:19:10.599Z,11.32
2022-12-23T09:21:40.373Z,11.38
2022-12-23T09:24:10.524Z,11.46
2022-12-23T09:26:41.454Z,11.55
2022-12-23T09:29:10.712Z,11.60
2022-12-23T09:31:40.972Z,11.67
2022-12-23T09:34:12.684Z,11.77
2022-12-23T09:36:41.738Z,11.81
2022-12-23T09:39:11.800Z,11.86
2022-12-23T09:41:50.947Z,11.91
2022-12-23T09:44:33.694Z,11.96
2022-12-23T09:47:04.773Z,12.00
2022-12-23T09:49:35.159Z,12.05
2022-12-23T09:52:09.784Z,12.10
2022-12-23T09:54:43.187Z,12.20
2022-12-23T09:57:19.431Z,12.28
2022-12-23T09:59:58.028Z,12.37
2022-12-23T10:02:39.632Z,12.48
2022-12-23T10:05:20.996Z,12.59
2022-12-23T10:07:51.408Z,12.66
2022-12-23T10:10:26.500Z,12.74
2022-12-23T10:12:57.303Z,12.84
2022-12-23T10:15:30.356Z,12.90
2022-12-23T10:18:02.765Z,12.95
2022-12-23T10:20:37.729Z,13.03
2022-12-23T10:23:10.928Z,13.07
2022-12-23T10:25:43.857Z,13.15
2022-12-23T10:28:14.253Z,13.14
2022-12-23T10:31:11.247Z,13.14
2022-12-23T10:33:44.224Z,13.13
2022-12-23T10:36:17.925Z,13.11
2022-12-23T10:38:54.044Z,13.05
2022-12-23T10:41:37.939Z,13.00
2022-12-23T10:44:30.539Z,12.92
2022-12-23T10:47:06.152Z,12.85
2022-12-23T10:49:47.447Z,12.82
2022-12-23T10:52:19.821Z,12.81
2022-12-23T10:54:49.276Z,12.80
2022-12-23T10:57:19.833Z,12.77
2022-12-23T10:59:50.004Z,12.80
2022-12-23T11:02:34.683Z,12.79
2022-12-23T11:05:04.438Z,12.80
2022-12-23T11:07:44.619Z,12.78
2022-12-23T11:10:18.004Z,12.82
2022-12-23T11:12:48.791Z,12.82
2022-12-23T11:15:32.544Z,12.82
2022-12-23T11:18:18.398Z,12.82
2022-12-23T11:21:06.510Z,12.80
2022-12-23T11:23:37.063Z,12.77
2022-12-23T11:26:11.583Z,12.76
2022-12-23T11:28:49.173Z,12.75
2022-12-23T11:31:26.897Z,12.70
2022-12-23T11:33:59.603Z,12.71
2022-12-23T11:36:29.681Z,12.73
2022-12-23T11:39:04.688Z,12.78
2022-12-23T11:41:38.619Z,12.86
2022-12-23T11:44:21.689Z,12.85
2022-12-23T11:46:50.703Z,12.89
2022-12-23T11:49:22.760Z,12.89
2022-12-23T11:52:02.947Z,12.94
2022-12-23T11:54:32.752Z,12.87
2022-12-23T11:57:03.456Z,12.88
2022-12-23T11:59:36.892Z,12.86
2022-12-23T12:02:12.919Z,12.82
2022-12-23T12:04:43.635Z,12.81
2022-12-23T12:07:14.551Z,12.81
2022-12-23T12:09:45.192Z,12.81
2022-12-23T12:12:17.139Z,12.75
2022-12-23T12:14:48.684Z,12.66
2022-12-23T12:17:23.366Z,12.64
2022-12-23T12:20:00.329Z,12.64
2022-12-23T12:22:34.719Z,12.61
2022-12-23T12:25:17.186Z,12.55
2022-12-23T12:27:52.631Z,12.52
2022-12-23T12:30:23.058Z,12.52
2022-12-23T12:32:56.703Z,12.54
2022-12-23T12:35:32.427Z,12.57
2022-12-23T12:38:07.098Z,12.57
2022-12-23T12:40:40.789Z,12.58
2022-12-23T12:43:19.354Z,12.58
2022-12-23T12:45:51.448Z,12.64
2022-12-23T12:48:29.641Z,12.65
2022-12-23T12:51:05.659Z,12.68
2022-12-23T12:53:34.404Z,12.66
2022-12-23T12:56:08.621Z,12.70
2022-12-23T12:58:46.033Z,12.73
2022-12-23T13:01:27.713Z,12.74
2022-12-23T13:04:21.435Z,12.75
2022-12-23T13:06:57.658Z,12.71
2022-12-23T13:09:31.235Z,12.70
2022-12-23T13:12:05.802Z,12.66
2022-12-23T13:14:46.968Z,12.63
2022-12-23T13:17:18.716Z,12.57
2022-12-23T13:19:53.140Z,12.58
2022-12-23T13:22:25.107Z,12.59
2022-12-23T13:24:57.481Z,12.61
2022-12-23T13:27:32.045Z,12.61
2022-12-23T13:30:05.376Z,12.64
2022-12-23T13:32:45.853Z,12.68
2022-12-23T13:35:25.372Z,12.70
2022-12-23T13:37:59.067Z,12.70
2022-12-23T13:40:36.832Z,12.65
2022-12-23T13:43:11.329Z,12.63
2022-12-23T13:45:40.793Z,12.68
2022-12-23T13:48:33.874Z,12.63
2022-12-23T13:51:08.435Z,12.57
2022-12-23T13:53:49.865Z,12.53
2022-12-23T13:56:26.557Z,12.53
2022-12-23T13:58:55.711Z,12.52
2022-12-23T14:01:34.783Z,12.52
2022-12-23T14:04:39.392Z,12.50
2022-12-23T14:07:19.731Z,12.41
2022-12-23T14:09:52.367Z,12.33
2022-12-23T14:12:25.585Z,12.28
2022-12-23T14:15:23.642Z,12.31
2022-12-23T14:18:04.903Z,12.24
2022-12-23T14:20:43.561Z,12.18
2022-12-23T14:23:24.235Z,12.12
2022-12-23T14:26:10.988Z,12.09
2022-12-23T14:28:49.586Z,12.01
2022-12-23T14:31:33.598Z,11.94
2022-12-23T14:34:26.101Z,11.91
2022-12-23T14:37:27.861Z,11.87
2022-12-23T14:39:57.748Z,11.79
2022-12-23T14:42:36.666Z,11.78
2022-12-23T14:45:30.617Z,11.72
2022-12-23T14:47:59.281Z,11.65
2022-12-23T14:50:40.364Z,11.64
2022-12-23T14:53:23.016Z,11.59
2022-12-23T14:55:53.417Z,11.58
2022-12-23T14:58:53.844Z,11.55
2022-12-23T15:01:28.690Z,11.56
2022-12-23T15:04:01.551Z,11.51
2022-12-23T15:06:35.471Z,11.49
2022-12-23T15:09:10.600Z,11.46
2022-12-23T15:11:40.988Z,11.43
2022-12-23T15:14:14.707Z,11.42
2022-12-23T15:16:44.284Z,11.44
2022-12-23T15:19:21.363Z,11.43
2022-12-23T15:21:59.633Z,11.40
2022-12-23T15:24:33.845Z,11.37
2022-12-23T15:27:26.014Z,11.38
2022-12-23T15:29:55.649Z,11.31
2022-12-23T15:32:25.013Z,11.29
2022-12-23T15:34:57.422Z,11.27
2022-12-23T15:37:29.034Z,11.23
2022-12-23T15:40:12.511Z,11.21
2022-12-23T15:42:48.440Z,11.24
2022-12-23T15:45:31.818Z,11.24
2022-12-23T15:48:00.696Z,11.23
2022-12-23T15:50:39.554Z,11.20
2022-12-23T15:53:09.323Z,11.17
2022-12-23T15:55:42.880Z,11.17
2022-12-23T15:58:19.297Z,11.16
2022-12-23T16:00:53.638Z,11.14
2022-12-23T16:03:28.250Z,11.15
2022-12-23T16:06:09.835Z,11.13
2022-12-23T16:08:39.138Z,11.11
2022-12-23T16:11:16.621Z,11.08
2022-12-23T16:13:58.667Z,11.05
2022-12-23T16:16:39.749Z,11.04
2022-12-23T16:19:41.174Z,11.05
2022-12-23T16:22:19.941Z,11.05
2022-12-23T16:24:50.626Z,11.04
2022-12-23T16:27:25.273Z,11.07
2022-12-23T16:29:54.203Z,11.10
2022-12-23T16:32:24.631Z,11.09
2022-12-23T16:34:53.151Z,11.12
2022-12-23T16:37:21.870Z,11.17
2022-12-23T16:39:50.771Z,11.19
2022-12-23T16:42:20.115Z,11.22
2022-12-23T16:44:48.755Z,11.27
2022-12-23T16:47:17.842Z,11.28
2022-12-23T16:49:46.291Z,11.27
2022-12-23T16:52:15.755Z,11.28
2022-12-23T16:54:44.280Z,11.28
2022-12-23T16:57:12.699Z,11.29
2022-12-23T16:59:41.263Z,11.30
2022-12-23T17:02:18.866Z,11.30
2022-12-23T17:04:48.079Z,11.30
2022-12-23T17:07:16.684Z,11.32
2022-12-23T17:09:45.221Z,11.33
2022-12-23T17:12:15.994Z,11.36
2022-12-23T17:14:45.762Z,11.37
2022-12-23T17:17:17.228Z,11.39
2022-12-23T17:19:45.878Z,11.40
2022-12-23T17:22:14.428Z,11.41
2022-12-23T17:24:42.908Z,11.39
2022-12-23T17:27:16.700Z,11.42
2022-12-23T17:29:45.256Z,11.38
2022-12-23T17:32:15.393Z,11.36
2022-12-23T17:34:44.453Z,11.34
2022-12-23T17:37:14.814Z,11.34
2022-12-23T17:39:43.906Z,10.93
2022-12-23T17:42:20.262Z,10.68
2022-12-23T17:44:53.509Z,10.66
2022-12-23T17:47:24.635Z,10.63
2022-12-23T17:49:53.607Z,10.59
2022-12-23T17:52:23.304Z,10.72
2022-12-23T17:54:53.098Z,10.59
2022-12-23T17:57:22.885Z,10.72
2022-12-23T17:59:52.949Z,10.95
2022-12-23T18:02:26.793Z,10.99
2022-12-23T18:04:56.842Z,11.09
2022-12-23T18:07:25.566Z,11.05
2022-12-23T18:09:54.650Z,10.95
2022-12-23T18:12:26.992Z,11.05
2022-12-23T18:14:55.922Z,10.89
2022-12-23T18:17:27.072Z,10.92
2022-12-23T18:19:55.520Z,10.85
2022-12-23T18:22:25.658Z,10.98
2022-12-23T18:24:59.139Z,11.00
2022-12-23T18:27:29.135Z,10.96
2022-12-23T18:29:57.618Z,10.97
2022-12-23T18:32:28.452Z,10.90
2022-12-23T18:34:57.009Z,10.90
2022-12-23T18:37:28.124Z,10.93
2022-12-23T18:39:56.785Z,10.96
2022-12-23T18:42:25.175Z,10.99
2022-12-23T18:44:53.681Z,10.86
2022-12-23T18:47:22.453Z,10.85
2022-12-23T18:49:51.241Z,10.83
2022-12-23T18:52:20.179Z,10.81
2022-12-23T18:54:48.833Z,10.78
2022-12-23T18:57:17.513Z,10.80
2022-12-23T18:59:46.198Z,10.82
2022-12-23T19:02:15.250Z,10.86
2022-12-23T19:04:43.787Z,10.84
2022-12-23T19:07:13.312Z,10.82
2022-12-23T19:09:41.899Z,10.89
2022-12-23T19:12:10.563Z,10.90
2022-12-23T19:14:40.058Z,10.95
2022-12-23T19:17:09.438Z,11.00
2022-12-23T19:19:38.050Z,11.04
2022-12-23T19:22:06.887Z,11.14
2022-12-23T19:24:42.508Z,11.12
2022-12-23T19:27:20.534Z,11.09
2022-12-23T19:29:49.225Z,10.87
2022-12-23T19:32:18.038Z,10.88
2022-12-23T19:34:47.246Z,11.04
2022-12-23T19:37:16.081Z,10.98
2022-12-23T19:39:44.660Z,10.83
2022-12-23T19:42:13.415Z,10.81
2022-12-23T19:44:43.143Z,10.83
2022-12-23T19:47:14.138Z,10.83
2022-12-23T19:49:44.075Z,10.84
2022-12-23T19:52:14.236Z,10.83
2022-12-23T19:54:44.137Z,10.84
2022-12-23T19:57:14.613Z,10.83
2022-12-23T19:59:46.195Z,10.84
2022-12-23T20:02:16.171Z,10.85
2022-12-23T20:04:46.079Z,10.85
2022-12-23T20:07:16.340Z,10.84
2022-12-23T20:09:45.959Z,10.85
2022-12-23T20:12:18.232Z,10.87
2022-12-23T20:14:47.732Z,10.90
2022-12-23T20:17:18.199Z,10.89
2022-12-23T20:19:47.828Z,10.87
2022-12-23T20:22:20.140Z,10.88
2022-12-23T20:24:51.112Z,10.93
2022-12-23T20:27:26.048Z,10.91
2022-12-23T20:30:00.923Z,10.90
2022-12-23T20:32:32.163Z,10.88
2022-12-23T20:35:02.129Z,10.93
2022-12-23T20:37:34.459Z,10.98
2022-12-23T20:40:07.047Z,10.95
2022-12-23T20:42:37.140Z,10.99
2022-12-23T20:52:28.509Z,10.94
2022-12-23T20:55:02.731Z,10.94
2022-12-23T20:57:39.867Z,10.86
2022-12-23T21:00:21.045Z,10.87
2022-12-23T21:02:54.704Z,11.09
2022-12-23T21:05:27.499Z,10.93
2022-12-23T21:08:06.050Z,10.94
2022-12-23T21:10:40.426Z,10.90
2022-12-23T21:13:13.937Z,10.90
2022-12-23T21:15:46.013Z,10.93
2022-12-23T21:18:19.990Z,10.94
2022-12-23T21:20:53.546Z,10.92
2022-12-23T21:23:27.407Z,10.93
2022-12-23T21:26:17.273Z,10.96
2022-12-23T21:28:53.562Z,10.94
2022-12-23T21:31:31.054Z,10.93
2022-12-23T21:34:05.479Z,10.95
2022-12-23T21:36:40.458Z,10.95
2022-12-23T21:39:16.993Z,10.96
2022-12-23T21:41:51.553Z,10.94
2022-12-23T21:44:25.056Z,11.04
2022-12-23T21:47:07.385Z,11.04
2022-12-23T21:49:45.319Z,11.02
2022-12-23T21:52:22.305Z,11.00
2022-12-23T21:54:57.815Z,11.03
2022-12-23T21:57:30.831Z,11.01
2022-12-23T22:00:06.912Z,11.01
2022-12-23T22:02:39.915Z,11.02
2022-12-23T22:05:16.040Z,10.91
2022-12-23T22:07:49.610Z,10.84
2022-12-23T22:10:21.719Z,10.81
2022-12-23T22:12:56.269Z,10.93
2022-12-23T22:15:29.611Z,10.79
2022-12-23T22:18:03.524Z,10.79
2022-12-23T22:20:44.236Z,10.91
2022-12-23T22:23:20.267Z,10.76
2022-12-23T22:25:56.861Z,10.70
2022-12-23T22:28:31.677Z,10.69
2022-12-23T22:31:09.233Z,10.69
2022-12-23T22:33:42.597Z,10.65
2022-12-23T22:36:17.692Z,10.64
2022-12-23T22:38:57.762Z,10.63
2022-12-23T22:41:34.657Z,10.66
2022-12-23T22:44:09.553Z,10.68
2022-12-23T22:46:43.316Z,10.60
2022-12-23T22:49:17.342Z,10.57
2022-12-23T22:51:49.787Z,10.59
2022-12-23T22:54:23.563Z,10.60
2022-12-23T22:56:56.724Z,10.62
2022-12-23T22:59:29.355Z,10.53
2022-12-23T23:02:05.189Z,10.49
2022-12-23T23:04:39.732Z,10.48
2022-12-23T23:07:12.007Z,10.46
2022-12-23T23:09:45.600Z,10.49
2022-12-23T23:12:18.278Z,10.49
2022-12-23T23:14:58.471Z,10.50
2022-12-23T23:17:33.187Z,10.49
2022-12-23T23:20:05.796Z,10.47
2022-12-23T23:22:38.238Z,10.44
2022-12-23T23:25:13.053Z,10.40
2022-12-23T23:27:45.222Z,10.33
2022-12-23T23:30:18.865Z,10.28
2022-12-23T23:32:53.353Z,10.20
2022-12-23T23:35:27.176Z,10.13
2022-12-23T23:38:00.038Z,10.13
2022-12-23T23:40:35.423Z,10.12
2022-12-23T23:43:08.773Z,10.11
2022-12-23T23:45:42.699Z,10.12
2022-12-23T23:48:16.326Z,10.09
2022-12-23T23:50:52.214Z,10.10
2022-12-23T23:53:26.844Z,10.05
2022-12-23T23:56:07.711Z,10.06
2022-12-23T23:58:39.627Z,10.02
